createdAt,value
2022-12-12T00:00:28.635Z,-16173.44
2022-12-12T00:01:52.673Z,-16484.50
2022-12-12T00:02:54.943Z,-15536.09
2022-12-12T00:03:57.869Z,-16165.31
2022-12-12T00:05:00.027Z,-15849.00
2022-12-12T00:06:04.890Z,-15847.19
2022-12-12T00:07:07.170Z,-15844.94
2022-12-12T00:08:09.360Z,-16160.56
2022-12-12T00:09:12.591Z,-16159.34
2022-12-12T00:10:14.755Z,-16474.19
2022-12-12T00:11:17.071Z,-16474.50
2022-12-12T00:12:19.290Z,-17110.00
2022-12-12T00:13:21.470Z,-17110.63
2022-12-12T00:14:23.611Z,-17428.16
2022-12-12T00:15:25.804Z,-17114.00
2022-12-12T00:16:28.239Z,-17428.81
2022-12-12T00:17:30.352Z,-16797.75
2022-12-12T00:18:32.576Z,-17116.44
2022-12-12T00:19:34.670Z,-16801.72
2022-12-12T00:20:36.893Z,-16484.50
2022-12-12T00:21:39.309Z,-16483.25
2022-12-12T00:22:41.494Z,-16167.94
2022-12-12T00:23:44.441Z,-16167.47
2022-12-12T00:24:46.625Z,-15850.19
2022-12-12T00:26:00.961Z,-16480.59
2022-12-12T00:27:03.279Z,-15850.06
2022-12-12T00:28:06.015Z,-15849.16
2022-12-12T00:29:08.200Z,-15532.84
2022-12-12T00:30:10.853Z,-15217.00
2022-12-12T00:31:13.725Z,-15531.66
2022-12-12T00:32:15.861Z,-15215.13
2022-12-12T00:33:18.364Z,-15214.97
2022-12-12T00:34:20.647Z,-15532.84
2022-12-12T00:35:22.728Z,-15533.28
2022-12-12T00:36:27.628Z,-16164.25
2022-12-12T00:37:29.736Z,-15535.22
2022-12-12T00:38:32.121Z,-15852.91
2022-12-12T00:39:34.504Z,-15539.81
2022-12-12T00:40:36.709Z,-15856.53
2022-12-12T00:41:38.813Z,-15222.97
2022-12-12T00:42:40.997Z,-15221.38
2022-12-12T00:43:43.416Z,-14904.63
2022-12-12T00:44:45.519Z,-14902.34
2022-12-12T00:45:47.641Z,-14903.63
2022-12-12T00:46:49.761Z,-14902.34
2022-12-12T00:47:51.976Z,-15218.31
2022-12-12T00:48:55.900Z,-15218.31
2022-12-12T00:49:58.037Z,-14901.75
2022-12-12T00:51:09.425Z,-15215.25
2022-12-12T00:52:11.570Z,-14583.72
2022-12-12T00:53:14.848Z,-15216.72
2022-12-12T00:54:17.041Z,-15534.78
2022-12-12T00:55:19.493Z,-15853.66
2022-12-12T00:56:22.942Z,-15854.72
2022-12-12T00:57:25.029Z,-15856.81
2022-12-12T00:58:27.332Z,-15542.47
2022-12-12T00:59:29.448Z,-15858.94
2022-12-12T01:00:32.582Z,-15859.53
2022-12-12T01:01:35.973Z,-15859.09
2022-12-12T01:02:38.229Z,-15543.81
2022-12-12T01:03:42.160Z,-15856.81
2022-12-12T01:04:44.255Z,-15542.31
2022-12-12T01:05:46.810Z,-15540.25
2022-12-12T01:06:48.923Z,-15224.28
2022-12-12T01:07:51.152Z,-15541.44
2022-12-12T01:08:54.478Z,-15856.22
2022-12-12T01:09:56.630Z,-15542.78
2022-12-12T01:10:59.312Z,-15541.44
2022-12-12T01:12:01.720Z,-15858.94
2022-12-12T01:13:04.337Z,-15859.53
2022-12-12T01:14:06.585Z,-15545.28
2022-12-12T01:15:10.380Z,-15858.63
2022-12-12T01:16:13.297Z,-15543.81
2022-12-12T01:17:15.471Z,-15859.84
2022-12-12T01:18:18.318Z,-15860.59
2022-12-12T01:19:20.396Z,-15862.84
2022-12-12T01:20:26.205Z,-16493.84
2022-12-12T01:21:28.425Z,-16178.97
2022-12-12T01:22:30.581Z,-16178.66
2022-12-12T01:23:32.681Z,-15861.34
2022-12-12T01:24:34.936Z,-16175.75
2022-12-12T01:25:37.157Z,-16174.66
2022-12-12T01:26:39.278Z,-16173.44
2022-12-12T01:27:41.593Z,-16490.41
2022-12-12T01:28:44.858Z,-16809.00
2022-12-12T01:29:46.943Z,-16494.78
2022-12-12T01:30:49.054Z,-16493.84
2022-12-12T01:31:51.297Z,-16810.44
2022-12-12T01:32:55.053Z,-16810.59
2022-12-12T01:33:57.186Z,-16808.69
2022-12-12T01:34:59.413Z,-16810.59
2022-12-12T01:36:01.536Z,-17126.41
2022-12-12T01:37:03.693Z,-17124.97
2022-12-12T01:38:05.818Z,-17121.91
2022-12-12T01:39:08.117Z,-17438.00
2022-12-12T01:40:17.649Z,-18071.22
2022-12-12T01:41:21.068Z,-17755.09
2022-12-12T01:42:23.191Z,-17755.75
2022-12-12T01:43:25.831Z,-18071.56
2022-12-12T01:44:41.693Z,-18387.19
2022-12-12T01:46:02.660Z,-18699.00
2022-12-12T01:47:04.952Z,-18381.88
2022-12-12T01:48:07.144Z,-18380.00
2022-12-12T01:49:22.803Z,-19012.63
2022-12-12T01:50:24.945Z,-18694.81
2022-12-12T01:51:28.181Z,-18694.81
2022-12-12T01:52:41.410Z,-19010.69
2022-12-12T01:53:45.030Z,-19011.03
2022-12-12T01:54:54.279Z,-19009.09
2022-12-12T01:55:58.599Z,-19008.94
2022-12-12T01:57:05.247Z,-19008.75
2022-12-12T01:58:07.441Z,-18693.59
2022-12-12T01:59:12.717Z,-19009.47
2022-12-12T02:00:15.548Z,-18692.22
2022-12-12T02:01:20.841Z,-19008.22
2022-12-12T02:02:23.021Z,-18694.13
2022-12-12T02:03:25.864Z,-19011.41
2022-12-12T02:04:28.712Z,-18694.31
2022-12-12T02:05:41.545Z,-19011.22
2022-12-12T02:06:43.931Z,-18694.47
2022-12-12T02:07:46.179Z,-18696.91
2022-12-12T02:08:49.965Z,-18698.66
2022-12-12T02:09:52.168Z,-18698.31
2022-12-12T02:10:54.388Z,-18384.63
2022-12-12T02:11:58.880Z,-18701.09
2022-12-12T02:13:08.280Z,-18703.00
2022-12-12T02:14:11.258Z,-18386.16
2022-12-12T02:15:14.475Z,-18384.63
2022-12-12T02:16:25.848Z,-18381.88
2022-12-12T02:18:03.330Z,-19014.75
2022-12-12T02:19:44.017Z,-19014.41
2022-12-12T02:21:07.510Z,-19016.88
2022-12-12T02:22:18.913Z,-19016.16
2022-12-12T02:23:58.520Z,-19016.16
2022-12-12T02:25:18.633Z,-19332.31
2022-12-12T02:26:49.859Z,-19329.09
2022-12-12T02:28:13.073Z,-19323.72
2022-12-12T02:29:37.032Z,-19320.66
2022-12-12T02:30:49.507Z,-19955.03
2022-12-12T02:32:06.649Z,-19950.63
2022-12-12T02:33:28.961Z,-19948.59
2022-12-12T02:35:03.916Z,-19630.66
2022-12-12T02:36:14.898Z,-19950.97
2022-12-12T02:37:22.730Z,-19633.19
2022-12-12T02:38:34.472Z,-19628.81
2022-12-12T02:40:04.814Z,-18994.97
2022-12-12T02:41:45.848Z,-18678.47
2022-12-12T02:43:15.506Z,-18677.75
2022-12-12T02:44:29.951Z,-17728.50
2022-12-12T02:45:47.717Z,-18359.25
2022-12-12T02:47:21.348Z,-18360.09
2022-12-12T02:48:38.963Z,-18677.06
2022-12-12T02:49:49.681Z,-18044.19
2022-12-12T02:50:53.667Z,-18045.22
2022-12-12T02:51:58.266Z,-17729.31
2022-12-12T02:53:00.693Z,-16781.75
2022-12-12T02:54:13.925Z,-17095.50
2022-12-12T02:55:17.612Z,-17096.13
2022-12-12T02:56:51.744Z,-17412.47
2022-12-12T02:57:55.328Z,-17095.16
2022-12-12T02:58:58.286Z,-16778.44
2022-12-12T03:00:10.097Z,-16462.50
2022-12-12T03:01:15.067Z,-16144.94
2022-12-12T03:02:23.040Z,-15828.34
2022-12-12T03:04:05.141Z,-15513.75
2022-12-12T03:05:31.722Z,-14880.91
2022-12-12T03:07:01.307Z,-14879.75
2022-12-12T03:08:26.470Z,-14248.41
2022-12-12T03:09:54.598Z,-13617.41
2022-12-12T03:11:12.812Z,-13301.81
2022-12-12T03:12:25.949Z,-13617.66
2022-12-12T03:13:50.874Z,-12986.50
2022-12-12T03:15:10.317Z,-13301.28
2022-12-12T03:16:38.573Z,-12985.47
2022-12-12T03:18:00.209Z,-13300.25
2022-12-12T03:19:43.871Z,-13301.03
2022-12-12T03:21:22.484Z,-13615.69
2022-12-12T03:22:27.638Z,-13932.88
2022-12-12T03:23:41.792Z,-14247.03
2022-12-12T03:24:55.975Z,-14246.06
2022-12-12T03:26:11.145Z,-14245.66
2022-12-12T03:27:32.732Z,-14245.22
2022-12-12T03:28:45.426Z,-13929.50
2022-12-12T03:29:56.684Z,-13928.44
2022-12-12T03:31:03.802Z,-13614.22
2022-12-12T03:32:17.495Z,-14244.81
2022-12-12T03:33:25.992Z,-14245.09
2022-12-12T03:34:36.108Z,-14877.75
2022-12-12T03:35:53.450Z,-15193.44
2022-12-12T03:37:04.304Z,-14878.63
2022-12-12T03:38:19.818Z,-14878.63
2022-12-12T03:39:37.254Z,-15511.22
2022-12-12T03:41:08.619Z,-15828.50
2022-12-12T03:42:30.629Z,-15830.91
2022-12-12T03:43:39.582Z,-16777.00
2022-12-12T03:44:49.671Z,-17095.34
2022-12-12T03:46:36.900Z,-17096.63
2022-12-12T03:47:50.347Z,-16781.44
2022-12-12T03:48:58.444Z,-16468.91
2022-12-12T03:50:15.637Z,-17414.75
2022-12-12T03:51:24.076Z,-16784.75
2022-12-12T03:52:33.751Z,-16469.53
2022-12-12T03:53:51.957Z,-16468.75
2022-12-12T03:55:04.635Z,-16468.91
2022-12-12T03:56:21.845Z,-16154.13
2022-12-12T03:57:36.665Z,-16154.44
2022-12-12T03:58:44.677Z,-16153.97
2022-12-12T03:59:54.405Z,-16156.59
2022-12-12T04:00:58.431Z,-15841.63
2022-12-12T04:02:15.941Z,-15841.16
2022-12-12T04:03:42.759Z,-16157.19
2022-12-12T04:05:15.661Z,-16158.44
2022-12-12T04:06:29.300Z,-15843.56
2022-12-12T04:07:38.377Z,-15528.41
2022-12-12T04:09:00.534Z,-14898.34
2022-12-12T04:10:21.496Z,-15214.69
2022-12-12T04:11:42.510Z,-15846.44
2022-12-12T04:13:03.401Z,-15531.50
2022-12-12T04:14:27.349Z,-15215.56
2022-12-12T04:15:35.264Z,-15214.69
2022-12-12T04:16:42.584Z,-15217.44
2022-12-12T04:18:03.278Z,-15217.88
2022-12-12T04:19:13.596Z,-15216.56
2022-12-12T04:20:47.553Z,-15216.13
2022-12-12T04:22:16.714Z,-14899.75
2022-12-12T04:23:46.298Z,-15530.47
2022-12-12T04:25:03.415Z,-15214.69
2022-12-12T04:26:40.622Z,-15214.69
2022-12-12T04:27:51.224Z,-15213.53
2022-12-12T04:29:06.911Z,-15212.22
2022-12-12T04:30:12.128Z,-14895.75
2022-12-12T04:31:17.575Z,-14579.91
2022-12-12T04:32:25.538Z,-14894.19
2022-12-12T04:33:36.651Z,-14893.19
2022-12-12T04:34:42.457Z,-14577.53
2022-12-12T04:35:51.015Z,-15208.00
2022-12-12T04:36:53.600Z,-15209.16
2022-12-12T04:38:04.319Z,-15840.56
2022-12-12T04:39:09.452Z,-15210.91
2022-12-12T04:40:17.065Z,-15526.03
2022-12-12T04:41:21.199Z,-15210.16
2022-12-12T04:42:27.463Z,-15209.72
2022-12-12T04:43:33.576Z,-15842.06
2022-12-12T04:44:40.149Z,-15526.63
2022-12-12T04:45:46.201Z,-15210.75
2022-12-12T04:46:52.562Z,-15527.66
2022-12-12T04:47:56.774Z,-15529.59
2022-12-12T04:49:20.067Z,-16160.56
2022-12-12T04:50:25.549Z,-15529.59
2022-12-12T04:51:34.667Z,-15530.19
2022-12-12T04:52:39.288Z,-15214.09
2022-12-12T04:53:48.740Z,-15528.69
2022-12-12T04:55:12.634Z,-15843.41
2022-12-12T04:56:19.581Z,-15843.56
2022-12-12T04:57:30.179Z,-15844.94
2022-12-12T04:58:32.311Z,-15214.81
2022-12-12T04:59:35.397Z,-15531.50
2022-12-12T05:00:53.180Z,-16160.56
2022-12-12T05:02:02.955Z,-16158.44
2022-12-12T05:03:18.653Z,-16155.97
2022-12-12T05:04:31.197Z,-16154.28
2022-12-12T05:05:43.727Z,-16151.84
2022-12-12T05:06:55.761Z,-16149.38
2022-12-12T05:08:06.403Z,-16147.25
2022-12-12T05:09:08.739Z,-15515.38
2022-12-12T05:10:14.323Z,-16144.03
2022-12-12T05:11:19.049Z,-15828.03
2022-12-12T05:12:21.854Z,-15512.84
2022-12-12T05:13:28.093Z,-16141.72
2022-12-12T05:14:31.404Z,-16142.31
2022-12-12T05:15:33.555Z,-15827.75
2022-12-12T05:16:43.498Z,-16771.47
2022-12-12T05:17:48.855Z,-16457.06
2022-12-12T05:18:51.168Z,-16141.25
2022-12-12T05:19:53.331Z,-16140.78
2022-12-12T05:20:55.417Z,-15826.09
2022-12-12T05:21:57.535Z,-15825.50
2022-12-12T05:22:59.674Z,-15509.88
2022-12-12T05:24:01.767Z,-15508.69
2022-12-12T05:25:04.269Z,-15508.25
2022-12-12T05:26:16.449Z,-16136.97
2022-12-12T05:27:18.771Z,-14876.63
2022-12-12T05:28:20.868Z,-14560.69
2022-12-12T05:29:24.007Z,-14559.84
2022-12-12T05:30:26.290Z,-14244.53
2022-12-12T05:31:28.592Z,-14242.63
2022-12-12T05:32:30.692Z,-13926.66
2022-12-12T05:33:33.127Z,-13610.25
2022-12-12T05:34:35.240Z,-13294.16
2022-12-12T05:35:37.510Z,-13292.19
2022-12-12T05:36:39.638Z,-12976.19
2022-12-12T05:37:46.636Z,-12975.16
2022-12-12T05:38:52.155Z,-12659.22
2022-12-12T05:39:54.251Z,-12344.06
2022-12-12T05:40:56.416Z,-12343.22
2022-12-12T05:41:58.869Z,-12342.72
2022-12-12T05:43:01.013Z,-12342.97
2022-12-12T05:44:03.218Z,-12658.84
2022-12-12T05:45:07.361Z,-13290.13
2022-12-12T05:46:09.583Z,-13922.47
2022-12-12T05:47:11.732Z,-14239.31
2022-12-12T05:48:14.080Z,-14240.28
2022-12-12T05:49:16.172Z,-14240.13
2022-12-12T05:50:18.532Z,-14239.84
2022-12-12T05:51:21.778Z,-14239.84
2022-12-12T05:52:24.018Z,-13923.03
2022-12-12T05:53:26.121Z,-13606.81
2022-12-12T05:54:28.232Z,-13292.19
2022-12-12T05:55:30.416Z,-12976.44
2022-12-12T05:56:32.681Z,-12976.19
2022-12-12T05:57:34.914Z,-12976.06
2022-12-12T05:58:37.332Z,-12977.06
2022-12-12T05:59:39.433Z,-13291.69
2022-12-12T06:00:41.561Z,-12976.94
2022-12-12T06:01:43.700Z,-12660.72
2022-12-12T06:02:46.033Z,-12345.16
2022-12-12T06:03:48.260Z,-12029.16
2022-12-12T06:04:50.462Z,-11713.59
2022-12-12T06:05:52.595Z,-11399.31
2022-12-12T06:06:54.709Z,-11399.88
2022-12-12T06:07:56.867Z,-11715.34
2022-12-12T06:08:59.192Z,-12346.25
2022-12-12T06:10:01.403Z,-12662.59
2022-12-12T06:11:07.090Z,-12978.84
2022-12-12T06:12:09.284Z,-12662.84
2022-12-12T06:13:11.749Z,-12661.59
2022-12-12T06:14:13.889Z,-12345.66
2022-12-12T06:15:16.108Z,-12030.59
2022-12-12T06:16:20.149Z,-12345.28
2022-12-12T06:17:22.285Z,-11714.63
2022-12-12T06:18:24.388Z,-11399.31
2022-12-12T06:19:26.511Z,-10769.47
2022-12-12T06:20:30.586Z,-10768.50
2022-12-12T06:21:32.873Z,-10453.38
2022-12-12T06:22:36.170Z,-10138.06
2022-12-12T06:23:42.851Z,-10138.16
2022-12-12T06:24:44.982Z,-9507.63
2022-12-12T06:25:50.702Z,-9507.34
2022-12-12T06:26:53.197Z,-8877.53
2022-12-12T06:27:55.343Z,-8562.66
2022-12-12T06:28:57.426Z,-8247.81
2022-12-12T06:29:59.579Z,-8247.19
2022-12-12T06:31:03.563Z,-7933.69
2022-12-12T06:32:07.740Z,-7933.44
2022-12-12T06:33:09.847Z,-7933.16
2022-12-12T06:34:11.975Z,-7618.44
2022-12-12T06:35:14.390Z,-7304.06
2022-12-12T06:36:24.120Z,-7933.50
2022-12-12T06:37:26.335Z,-7933.50
2022-12-12T06:38:29.806Z,-8249.31
2022-12-12T06:39:31.880Z,-8563.84
2022-12-12T06:40:34.022Z,-8879.88
2022-12-12T06:41:36.507Z,-9825.00
2022-12-12T06:42:40.865Z,-9825.50
2022-12-12T06:43:47.140Z,-9825.09
2022-12-12T06:44:49.227Z,-9824.28
2022-12-12T06:45:51.518Z,-9509.13
2022-12-12T06:46:53.631Z,-8878.84
2022-12-12T06:47:55.712Z,-8563.50
2022-12-12T06:48:58.788Z,-8563.75
2022-12-12T06:50:00.894Z,-8564.03
2022-12-12T06:51:07.715Z,-9508.81
2022-12-12T06:52:09.837Z,-9509.41
2022-12-12T06:53:12.730Z,-9509.13
2022-12-12T06:54:17.672Z,-9508.63
2022-12-12T06:55:19.780Z,-9193.38
2022-12-12T06:56:24.350Z,-9194.16
2022-12-12T06:57:26.941Z,-9193.56
2022-12-12T06:58:29.181Z,-8878.84
2022-12-12T06:59:31.337Z,-8563.66
2022-12-12T07:00:33.455Z,-8248.88
2022-12-12T07:01:35.619Z,-7933.94
2022-12-12T07:02:37.757Z,-7304.22
2022-12-12T07:03:40.501Z,-6988.56
2022-12-12T07:04:42.564Z,-6359.25
2022-12-12T07:05:46.173Z,-6044.47
2022-12-12T07:06:48.264Z,-5415.09
2022-12-12T07:07:50.452Z,-5414.63
2022-12-12T07:08:53.060Z,-5099.94
2022-12-12T07:09:55.557Z,-4785.84
2022-12-12T07:11:04.052Z,-5100.56
2022-12-12T07:12:06.254Z,-5100.25
2022-12-12T07:13:08.431Z,-5100.44
2022-12-12T07:14:10.903Z,-5100.63
2022-12-12T07:15:13.625Z,-5415.28
2022-12-12T07:16:16.481Z,-5415.47
2022-12-12T07:17:18.680Z,-5415.28
2022-12-12T07:18:20.766Z,-5415.47
2022-12-12T07:19:23.098Z,-5415.03
2022-12-12T07:20:25.450Z,-5100.06
2022-12-12T07:21:27.632Z,-4785.31
2022-12-12T07:22:29.950Z,-4470.66
2022-12-12T07:23:32.441Z,-4156.19
2022-12-12T07:24:34.624Z,-3841.97
2022-12-12T07:25:42.169Z,-4156.28
2022-12-12T07:26:44.244Z,-3841.72
2022-12-12T07:27:46.316Z,-3841.72
2022-12-12T07:28:49.782Z,-4470.56
2022-12-12T07:29:51.950Z,-4470.66
2022-12-12T07:30:54.133Z,-4470.78
2022-12-12T07:31:56.477Z,-4470.91
2022-12-12T07:32:58.683Z,-4471.13
2022-12-12T07:34:00.771Z,-5100.06
2022-12-12T07:35:03.305Z,-5414.88
2022-12-12T07:36:05.931Z,-6044.41
2022-12-12T07:37:08.038Z,-6674.97
2022-12-12T07:38:11.209Z,-7619.94
2022-12-12T07:39:20.111Z,-7934.78
2022-12-12T07:40:23.541Z,-8880.25
2022-12-12T07:41:25.660Z,-9195.22
2022-12-12T07:42:27.774Z,-9511.59
2022-12-12T07:43:32.952Z,-9827.03
2022-12-12T07:44:36.201Z,-10142.53
2022-12-12T07:45:38.317Z,-9514.16
2022-12-12T07:46:40.473Z,-9513.38
2022-12-12T07:47:42.777Z,-9199.16
2022-12-12T07:48:45.028Z,-8570.22
2022-12-12T07:49:47.537Z,-8254.63
2022-12-12T07:50:50.201Z,-7939.50
2022-12-12T07:51:52.340Z,-7625.50
2022-12-12T07:52:54.543Z,-7625.69
2022-12-12T07:53:57.306Z,-7941.81
2022-12-12T07:54:59.437Z,-8257.44
2022-12-12T07:56:05.349Z,-8888.09
2022-12-12T07:57:07.478Z,-8575.03
2022-12-12T07:58:09.556Z,-9207.63
2022-12-12T07:59:12.036Z,-9210.69
2022-12-12T08:00:14.676Z,-9527.97
2022-12-12T08:01:25.229Z,-10159.78
2022-12-12T08:02:27.466Z,-9216.75
2022-12-12T08:03:29.629Z,-8903.25
2022-12-12T08:04:32.595Z,-9219.16
2022-12-12T08:05:34.716Z,-8906.63
2022-12-12T08:06:36.886Z,-8593.03
2022-12-12T08:07:39.014Z,-8593.59
2022-12-12T08:08:42.027Z,-7963.84
2022-12-12T08:09:44.138Z,-7963.69
2022-12-12T08:10:46.234Z,-8280.94
2022-12-12T08:11:48.615Z,-8598.50
2022-12-12T08:12:51.376Z,-8599.69
2022-12-12T08:13:54.137Z,-8600.84
2022-12-12T08:14:56.768Z,-8916.81
2022-12-12T08:15:59.361Z,-9233.00
2022-12-12T08:17:01.930Z,-9233.56
2022-12-12T08:18:04.451Z,-9865.63
2022-12-12T08:19:06.970Z,-10497.69
2022-12-12T08:20:10.334Z,-11130.03
2022-12-12T08:21:17.654Z,-12077.72
2022-12-12T08:22:25.471Z,-12394.13
2022-12-12T08:23:27.975Z,-13342.09
2022-12-12T08:24:30.497Z,-13659.53
2022-12-12T08:25:34.217Z,-13660.06
2022-12-12T08:26:36.739Z,-14291.63
2022-12-12T08:27:39.020Z,-14608.41
2022-12-12T08:28:42.138Z,-14924.78
2022-12-12T08:29:44.663Z,-15241.44
2022-12-12T08:30:51.264Z,-16188.47
2022-12-12T08:31:54.111Z,-15873.41
2022-12-12T08:32:56.664Z,-15557.88
2022-12-12T08:34:00.753Z,-16506.63
2022-12-12T08:35:03.866Z,-16508.81
2022-12-12T08:36:16.343Z,-18091.31
2022-12-12T08:37:20.074Z,-17463.69
2022-12-12T08:38:22.593Z,-18098.25
2022-12-12T08:39:25.464Z,-18418.22
2022-12-12T08:40:27.988Z,-18420.63
2022-12-12T08:41:30.394Z,-18737.81
2022-12-12T08:42:33.267Z,-18739.03
2022-12-12T08:43:40.109Z,-18740.06
2022-12-12T08:44:42.632Z,-18425.09
2022-12-12T08:45:47.559Z,-18423.38
2022-12-12T08:46:50.588Z,-18420.97
2022-12-12T08:47:53.208Z,-17152.84
2022-12-12T08:48:56.794Z,-18101.94
2022-12-12T08:49:59.108Z,-18102.13
2022-12-12T08:51:01.831Z,-18416.84
2022-12-12T08:52:07.355Z,-18417.19
2022-12-12T08:53:09.754Z,-18734.16
2022-12-12T08:54:13.233Z,-19049.91
2022-12-12T08:55:15.885Z,-19049.72
2022-12-12T08:56:19.359Z,-19050.09
2022-12-12T08:57:25.916Z,-19050.63
2022-12-12T08:58:28.721Z,-19050.09
2022-12-12T08:59:31.239Z,-19366.53
2022-12-12T09:00:33.762Z,-19369.78
2022-12-12T09:01:36.516Z,-19689.75
2022-12-12T09:02:39.427Z,-19693.91
2022-12-12T09:03:42.052Z,-19377.13
2022-12-12T09:04:44.565Z,-19698.28
2022-12-12T09:05:47.732Z,-20017.38
2022-12-12T09:06:51.095Z,-20023.28
2022-12-12T09:07:54.495Z,-20027.34
2022-12-12T09:08:58.658Z,-20032.50
2022-12-12T09:10:01.898Z,-20039.53
2022-12-12T09:11:05.623Z,-20049.50
2022-12-12T09:12:09.103Z,-20055.94
2022-12-12T09:13:12.344Z,-20064.78
2022-12-12T09:14:15.588Z,-19757.75
2022-12-12T09:15:18.709Z,-19450.63
2022-12-12T09:16:23.602Z,-19141.59
2022-12-12T09:17:26.511Z,-19464.25
2022-12-12T09:18:29.394Z,-19475.38
2022-12-12T09:19:32.273Z,-19808.69
2022-12-12T09:20:34.917Z,-19825.97
2022-12-12T09:21:37.562Z,-20157.97
2022-12-12T09:22:40.201Z,-20179.00
2022-12-12T09:23:42.844Z,-20197.47
2022-12-12T09:24:45.694Z,-20216.28
2022-12-12T09:25:48.485Z,-20233.28
2022-12-12T09:26:51.485Z,-20246.94
2022-12-12T09:27:54.063Z,-20261.34
2022-12-12T09:28:56.651Z,-20277.59
2022-12-12T09:29:59.652Z,-20291.59
2022-12-12T09:31:05.807Z,-19983.19
2022-12-12T09:32:08.460Z,-13912.13
2022-12-12T09:33:12.182Z,-8792.75
2022-12-12T09:34:14.779Z,3734.06
2022-12-12T09:35:17.419Z,28599.16
2022-12-12T09:36:20.227Z,77159.22
2022-12-12T09:37:22.828Z,145257.38
2022-12-12T09:38:25.750Z,146933.28
2022-12-12T09:39:28.630Z,146877.72
2022-12-12T09:40:45.389Z,146894.66
2022-12-12T09:41:48.559Z,146834.25
2022-12-12T09:42:52.044Z,133591.06
2022-12-12T09:44:06.551Z,116333.91
2022-12-12T09:45:09.798Z,98187.63
2022-12-12T09:46:25.287Z,146952.63
2022-12-12T09:47:51.042Z,147042.00
2022-12-12T09:49:02.323Z,147107.28
2022-12-12T09:50:31.366Z,136191.88
2022-12-12T09:51:35.717Z,147314.03
2022-12-12T09:52:38.966Z,147392.63
2022-12-12T09:53:45.684Z,147468.81
2022-12-12T09:54:48.443Z,147535.41
2022-12-12T09:56:21.662Z,147615.28
2022-12-12T09:57:34.777Z,147690.31
2022-12-12T09:58:56.986Z,147795.69
2022-12-12T10:00:09.581Z,147876.81
2022-12-12T10:01:19.556Z,147985.84
2022-12-12T10:02:37.047Z,148077.97
2022-12-12T10:04:11.393Z,148138.56
2022-12-12T10:05:37.287Z,148230.69
2022-12-12T10:07:14.978Z,148210.06
2022-12-12T10:08:36.005Z,148161.59
2022-12-12T10:09:48.930Z,148201.59
2022-12-12T10:11:07.653Z,148324.13
2022-12-12T10:12:14.488Z,148335.00
2022-12-12T10:13:27.938Z,148322.91
2022-12-12T10:14:34.894Z,148366.53
2022-12-12T10:15:41.867Z,148434.47
2022-12-12T10:16:45.990Z,148382.28
2022-12-12T10:17:49.056Z,148446.59
2022-12-12T10:18:55.063Z,148552.16
2022-12-12T10:20:08.503Z,148533.94
2022-12-12T10:21:32.496Z,148645.66
2022-12-12T10:22:43.539Z,148558.28
2022-12-12T10:23:51.248Z,148599.53
2022-12-12T10:25:00.478Z,148650.53
2022-12-12T10:26:08.526Z,148652.94
2022-12-12T10:27:13.307Z,148563.13
2022-12-12T10:28:19.427Z,148364.13
2022-12-12T10:29:26.273Z,148332.59
2022-12-12T10:30:34.196Z,148408.97
2022-12-12T10:32:15.120Z,148415.03
2022-12-12T10:33:27.017Z,148553.38
2022-12-12T10:34:41.650Z,148597.09
2022-12-12T10:35:58.441Z,148702.69
2022-12-12T10:37:18.963Z,148558.28
2022-12-12T10:38:44.418Z,148682.06
2022-12-12T10:40:22.446Z,148694.19
2022-12-12T10:41:54.135Z,148844.81
2022-12-12T10:43:01.812Z,148813.19
2022-12-12T10:44:19.813Z,148850.88
2022-12-12T10:45:52.668Z,148881.25
2022-12-12T10:47:07.779Z,148672.34
2022-12-12T10:48:11.420Z,148669.91
2022-12-12T10:49:21.385Z,148683.28
2022-12-12T10:50:41.187Z,148737.88
2022-12-12T10:51:48.145Z,148852.09
2022-12-12T10:52:51.510Z,148907.97
2022-12-12T10:53:54.631Z,148903.06
2022-12-12T10:54:59.911Z,148944.41
2022-12-12T10:56:20.195Z,148907.97
2022-12-12T10:57:28.474Z,148909.19
2022-12-12T10:58:43.839Z,148958.97
2022-12-12T10:59:53.144Z,148991.75
2022-12-12T11:01:04.897Z,149048.88
2022-12-12T11:02:28.122Z,149119.41
2022-12-12T11:03:41.382Z,149192.31
2022-12-12T11:04:46.368Z,149281.06
2022-12-12T11:05:49.968Z,149299.28
2022-12-12T11:06:55.630Z,149277.41
2022-12-12T11:08:03.939Z,148996.63
2022-12-12T11:09:10.381Z,149133.97
2022-12-12T11:10:35.215Z,149193.53
2022-12-12T11:11:38.458Z,149116.97
2022-12-12T11:12:41.700Z,149130.31
2022-12-12T11:13:49.620Z,149087.75
2022-12-12T11:14:54.184Z,148949.25
2022-12-12T11:16:07.576Z,148888.53
2022-12-12T11:17:25.988Z,148771.88
2022-12-12T11:18:30.430Z,148517.00
2022-12-12T11:19:39.678Z,148274.38
2022-12-12T11:20:48.315Z,148372.59
2022-12-12T11:21:52.876Z,148449.06
2022-12-12T11:22:57.317Z,148535.16
2022-12-12T11:24:03.559Z,148468.44
2022-12-12T11:25:07.401Z,148335.00
2022-12-12T11:26:17.123Z,148342.28
2022-12-12T11:27:31.044Z,148354.44
2022-12-12T11:28:38.179Z,148274.38
2022-12-12T11:29:40.706Z,148211.28
2022-12-12T11:30:44.660Z,148056.13
2022-12-12T11:31:47.291Z,148138.56
2022-12-12T11:32:54.934Z,148147.03
2022-12-12T11:34:06.510Z,148068.28
2022-12-12T11:35:34.778Z,148079.16
2022-12-12T11:36:40.946Z,148062.22
2022-12-12T11:37:49.822Z,148062.22
2022-12-12T11:38:56.187Z,147981.03
2022-12-12T11:39:58.946Z,147907.09
2022-12-12T11:41:05.024Z,148005.25
2022-12-12T11:42:13.591Z,147939.84
2022-12-12T11:43:29.907Z,148012.53
2022-12-12T11:44:37.594Z,148068.28
2022-12-12T11:45:40.196Z,148199.19
2022-12-12T11:46:42.957Z,148333.81
2022-12-12T11:47:47.321Z,148402.94
2022-12-12T11:48:52.728Z,148559.50
2022-12-12T11:50:00.191Z,148635.94
2022-12-12T11:51:03.874Z,148532.75
2022-12-12T11:52:31.236Z,148298.63
2022-12-12T11:53:39.295Z,148230.69
2022-12-12T11:54:41.799Z,147978.59
2022-12-12T11:56:13.936Z,147769.03
2022-12-12T11:57:45.764Z,147499.06
2022-12-12T11:59:23.321Z,147334.56
2022-12-12T12:00:35.699Z,147087.94
2022-12-12T12:01:50.800Z,146949.00
2022-12-12T12:03:27.685Z,146775.09
2022-12-12T12:04:55.177Z,146691.81
2022-12-12T12:06:15.896Z,146600.09
2022-12-12T12:07:52.160Z,146588.00
2022-12-12T12:09:24.410Z,146507.16
2022-12-12T12:10:45.525Z,146508.34
2022-12-12T12:12:15.286Z,146467.34
2022-12-12T12:13:33.060Z,146372.09
2022-12-12T12:14:53.332Z,146326.25
2022-12-12T12:16:05.688Z,146266.00
2022-12-12T12:17:26.570Z,146258.75
2022-12-12T12:18:54.412Z,146179.22
2022-12-12T12:20:18.419Z,146165.94
2022-12-12T12:22:03.653Z,146294.91
2022-12-12T12:23:22.997Z,146475.78
2022-12-12T12:24:37.261Z,146527.72
2022-12-12T12:25:42.422Z,146554.22
2022-12-12T12:27:01.864Z,146556.63
2022-12-12T12:28:43.624Z,146508.34
2022-12-12T12:29:52.025Z,146457.69
2022-12-12T12:31:12.472Z,146423.91
2022-12-12T12:32:29.831Z,146362.44
2022-12-12T12:33:58.992Z,146317.81
2022-12-12T12:35:17.236Z,146259.94
2022-12-12T12:36:45.799Z,146274.44
2022-12-12T12:37:54.319Z,146272.03
2022-12-12T12:39:20.603Z,146270.81
2022-12-12T12:40:48.448Z,146308.19
2022-12-12T12:41:59.725Z,146319.03
2022-12-12T12:43:34.051Z,146378.09
2022-12-12T12:44:55.419Z,146382.91
2022-12-12T12:46:07.560Z,146396.22
2022-12-12T12:47:52.790Z,146358.78
2022-12-12T12:49:14.626Z,146340.72
2022-12-12T12:50:28.063Z,146308.19
2022-12-12T12:51:43.111Z,146305.78
2022-12-12T12:53:02.862Z,146298.56
2022-12-12T12:54:21.354Z,146255.13
2022-12-12T12:55:30.109Z,146315.41
2022-12-12T12:56:44.515Z,146376.91
2022-12-12T12:57:50.753Z,146443.22
2022-12-12T12:58:57.231Z,146411.88
2022-12-12T13:00:10.441Z,146626.66
2022-12-12T13:01:20.003Z,146700.25
2022-12-12T13:02:47.778Z,146775.09
2022-12-12T13:04:06.123Z,146963.50
2022-12-12T13:05:45.964Z,147142.34
2022-12-12T13:06:51.847Z,147237.84